Yellow Mule RAWS (NWS)

Jump to table bottom
Date/Time Wind Direction Wind Speed knots Wind Gust knots RH % Accumulated Precip Inches Air Temp Fahrenheit
2022-08-20 00:04 WSW 6 11 56 10.78 55
2022-08-19 23:04 SSE 9 12 53 10.78 55
2022-08-19 22:04 SE 4 7 48 10.78 57
2022-08-19 21:04 SE 5 7 49 10.78 57
2022-08-19 20:04 SE 4 6 51 10.78 59
2022-08-19 19:04 ESE 3 9 48 10.78 62
2022-08-19 18:04 NNE 3 6 43 10.78 64
2022-08-19 17:04 WNW 3 15 48 10.78 62
2022-08-19 16:04 N 6 10 36 10.78 68
2022-08-19 15:04 SSE 4 9 33 10.78 71
2022-08-19 14:04 NNE 3 11 35 10.78 66
2022-08-19 13:04 NNW 6 11 34 10.78 69
2022-08-19 12:04 ENE 4 10 33 10.78 69
2022-08-19 11:04 ESE 4 8 36 10.78 69
2022-08-19 10:04 SSW 3 9 38 10.78 71
2022-08-19 09:04 NE 4 8 42 10.78 65
2022-08-19 08:04 N 3 5 49 10.78 57
2022-08-19 07:04 NNE 3 5 53 10.78 53
2022-08-19 06:04 NNE 3 5 51 10.78 54
2022-08-19 05:04 NNE 2 4 51 10.78 54
2022-08-19 04:04 NNE 3 8 48 10.78 55
2022-08-19 03:04 NE 3 6 52 10.78 54
2022-08-19 02:04 SE 3 5 50 10.78 55
2022-08-19 01:04 SE 3 4 43 10.78 57
2022-08-19 00:04 N 4 5 41 10.78 58
2022-08-18 23:04 N 3 7 39 10.78 59
2022-08-18 22:04 N 4 8 42 10.78 59
2022-08-18 21:04 NNE 3 6 40 10.78 60
2022-08-18 20:04 NNE 4 8 36 10.78 63
2022-08-18 19:04 N 5 14 26 10.78 69
2022-08-18 18:04 NNW 10 15 19 10.78 71
2022-08-18 17:04 SW 6 12 19 10.78 73
2022-08-18 16:04 WSW 7 12 22 10.78 73
2022-08-18 15:04 W 8 14 22 10.78 73
2022-08-18 14:04 WSW 10 19 23 10.78 72
2022-08-18 13:04 SSW 5 10 23 10.78 72
2022-08-18 12:04 NE 4 8 29 10.78 72
2022-08-18 11:04 ESE 4 7 27 10.78 72
2022-08-18 10:04 SSE 4 6 32 10.78 69
2022-08-18 09:04 S 4 6 35 10.78 63
2022-08-18 08:04 S 5 6 41 10.78 56
2022-08-18 07:04 S 3 5 38 10.78 56
2022-08-18 06:04 S 3 5 41 10.78 54
2022-08-18 05:04 S 4 5 42 10.78 54
2022-08-18 04:04 S 3 7 41 10.78 54
2022-08-18 03:04 S 5 7 40 10.78 54
2022-08-18 02:04 S 4 5 35 10.78 55
2022-08-18 01:04 SE 3 4 31 10.78 57
2022-08-18 00:04 NNE 2 4 27 10.78 58
2022-08-17 23:04 NNE 4 7 25 10.78 60